Werte bis 5 Uhr SommerzeitDiagramme Gross Umstadt: Tagesdaten Monatsdaten WindroseCSV-Datei: Gross Umstadt21.csv

Wetterdaten 2021 Station: Gross Umstadt
Temperaturen in °C relative Nieder- Global- Wind Wind Wind- Sonnen-
Datum Boden Boden Luft Luft Luft Luft Feuchte schlag strahlung max richtung schein
20 cm 5 cm 20 cm 2 m 2 m max 2 m min % mm W/m2*d m/s m/s ° h

27.10.2021 10,5 9,2 6,8 8,0 8,3 7,4 94 0,0 0 1,3 2,6 --- ---
26.10.2021 10,1 9,0 10,4 11,0 14,8 5,8 88 0,0 1462 1,7 5,2 --- 5,6
25.10.2021 9,9 7,9 4,4 5,7 15,1 -0,9 92 0,0 2201 0,4 3,2 --- 6,2
24.10.2021 10,6 8,5 3,6 5,8 13,0 0,1 87 0,1 2499 0,6 3,3 --- 6,5
23.10.2021 11,2 9,6 6,6 7,7 12,6 3,4 90 0,0 1508 0,7 5,9 --- 5,9
22.10.2021 11,7 9,8 7,3 7,3 11,1 3,4 84 0,1 2391 2,9 11,5 --- 6,0
21.10.2021 12,6 11,7 11,8 12,3 16,7 5,8 78 10,4 1206 5,4 20,9 --- 4,3
20.10.2021 12,0 11,1 13,2 14,5 18,1 9,4 82 8,9 964 1,9 8,8 --- 3,7
19.10.2021 11,7 10,3 10,1 10,9 17,4 5,3 92 3,7 748 1,3 5,8 --- 1,9
18.10.2021 11,8 10,4 8,7 8,9 13,8 6,0 93 0,0 1352 0,4 2,8 --- 5,7
17.10.2021 11,7 10,3 8,3 8,3 13,7 4,1 93 0,0 1586 0,4 3,4 --- 5,6
16.10.2021 11,9 10,6 8,3 8,8 14,7 5,7 90 0,1 2571 0,6 3,7 --- 6,0
15.10.2021 11,7 10,2 8,9 9,7 14,7 5,8 90 1,1 1849 1,1 5,3 --- 6,2
14.10.2021 11,7 10,1 9,1 9,5 13,7 6,6 90 0,0 988 1,3 5,3 --- 2,9
13.10.2021 11,8 10,0 6,9 7,1 11,3 3,2 95 0,8 1482 0,9 4,6 --- 5,8
12.10.2021 12,0 10,4 8,9 9,1 11,2 5,8 96 5,5 920 1,4 6,6 --- 2,5
11.10.2021 12,2 9,9 5,9 6,5 10,7 1,4 97 0,0 852 0,6 2,7 --- 2,2
10.10.2021 12,9 10,9 6,2 7,4 15,4 0,5 84 0,0 3106 0,6 4,3 --- 7,3
09.10.2021 13,6 11,8 7,7 9,5 17,5 3,0 81 0,0 3205 0,5 4,6 --- 7,3
08.10.2021 14,0 12,2 8,8 9,5 17,8 3,4 90 0,0 1913 0,5 4,8 --- 6,4
07.10.2021 14,5 13,0 10,7 11,3 16,8 6,7 90 0,5 2084 0,5 3,1 --- 6,6
06.10.2021 14,9 13,2 11,1 11,3 14,4 9,6 87 1,8 2037 2,4 7,9 --- 5,6
05.10.2021 15,2 14,0 12,9 12,8 17,5 10,5 91 3,9 2091 1,3 8,1 --- 6,3
04.10.2021 15,5 14,3 12,5 12,7 14,8 11,2 93 5,1 1060 0,8 3,2 --- 3,8
03.10.2021 15,6 14,7 16,9 18,3 21,5 14,2 67 1,6 627 2,0 11,4 --- 1,4
02.10.2021 15,1 14,0 14,9 15,9 21,0 10,6 72 0,0 3314 1,7 7,4 --- 8,1
01.10.2021 15,1 13,5 10,6 11,6 19,8 4,8 78 0,0 3558 0,8 5,2 --- 8,3
30.09.2021 15,6 13,7 10,7 10,8 15,8 7,4 79 0,0 3167 1,5 6,6 --- 7,1
29.09.2021 16,5 14,9 12,6 12,9 17,2 9,3 83 2,2 2210 1,7 8,1 --- 7,0
28.09.2021 17,1 16,2 13,3 13,7 18,7 9,6 85 3,4 3499 0,7 4,1 --- 8,9
27.09.2021 17,1 16,6 17,0 17,6 21,6 12,8 87 4,3 2479 1,1 9,3 --- 7,2
26.09.2021 16,9 16,5 17,6 18,1 23,4 14,3 89 6,6 1948 0,7 5,4 --- 6,7
25.09.2021 16,4 15,7 15,2 16,3 24,5 9,1 80 0,0 4246 0,6 3,3 --- 9,3
24.09.2021 16,3 15,5 16,2 16,3 21,4 12,3 77 0,0 2779 1,4 5,9 --- 8,0
23.09.2021 16,1 14,8 13,9 14,6 22,6 6,5 77 0,0 4445 1,2 6,3 --- 9,6
22.09.2021 16,5 14,9 11,2 11,7 20,2 5,6 84 0,0 3797 0,5 4,0 --- 9,4
21.09.2021 17,1 15,9 12,7 12,8 18,8 7,6 71 0,0 4351 1,1 6,4 --- 9,2
20.09.2021 17,3 16,0 13,8 13,6 17,7 11,5 75 0,0 2310 0,4 2,8 --- 7,1
19.09.2021 17,5 16,1 13,3 13,8 21,0 8,2 84 0,0 3344 0,5 7,1 --- 8,1
18.09.2021 18,0 17,0 14,3 15,2 22,2 9,3 84 0,0 4225 0,6 4,2 --- 9,5
17.09.2021 18,3 17,3 14,9 15,4 22,1 10,4 85 0,0 2931 0,4 4,8 --- 7,8
16.09.2021 18,9 18,1 17,0 16,6 18,7 14,5 87 9,8 2072 1,2 5,5 --- 6,6
15.09.2021 19,0 18,5 19,1 19,5 22,3 17,7 91 3,3 1489 1,4 5,0 --- 5,8
14.09.2021 18,6 18,1 18,0 18,4 27,0 10,7 83 0,0 3873 0,5 3,1 --- 9,1
13.09.2021 18,8 18,0 16,1 16,5 24,0 9,7 81 0,0 4679 0,7 5,7 --- 9,1
12.09.2021 19,0 18,4 17,2 17,3 23,4 11,6 81 0,0 4409 0,6 7,8 --- 9,3
11.09.2021 19,2 18,8 19,2 19,1 23,4 16,2 87 0,1 2021 1,2 6,3 --- 5,8
10.09.2021 19,2 19,0 20,2 20,5 25,2 16,7 76 0,4 3064 1,2 5,6 --- 8,3
09.09.2021 18,9 18,6 19,8 20,2 27,2 12,2 74 0,0 4094 1,0 6,4 --- 8,7
08.09.2021 18,8 18,2 17,6 19,2 27,4 12,7 73 0,0 5132 0,4 3,2 --- 9,9
07.09.2021 18,8 18,4 17,6 18,0 26,2 11,6 81 0,0 4204 0,5 3,6 --- 9,6
06.09.2021 18,7 18,5 18,3 18,9 27,9 12,0 77 0,0 4931 0,4 4,0 --- 9,2
05.09.2021 18,4 18,1 17,7 18,5 27,5 11,7 78 0,0 5157 0,8 4,9 --- 9,9
04.09.2021 18,1 17,7 16,7 17,9 27,8 9,1 76 0,0 5454 0,4 3,7 --- 10,0
03.09.2021 17,9 17,3 16,1 17,3 26,4 8,8 76 0,0 5548 0,3 3,5 --- 10,0
02.09.2021 17,7 16,9 15,2 15,9 25,1 7,9 81 0,0 5335 0,4 5,1 --- 10,4
01.09.2021 17,6 16,8 14,4 14,8 21,9 8,9 85 0,0 5267 0,9 5,1 --- 10,2
31.08.2021 17,7 16,9 15,3 15,6 21,2 11,4 86 0,1 3506 1,0 6,1 --- 8,7
30.08.2021 17,7 16,8 15,9 16,0 18,8 14,4 91 0,8 1938 2,1 7,2 --- 6,2
29.08.2021 17,9 16,7 14,7 14,4 15,9 13,3 99 14,4 1067 1,6 5,3 --- 3,4
28.08.2021 18,0 17,1 15,3 14,5 19,2 11,0 88 5,8 3453 0,8 4,9 --- 8,4
27.08.2021 18,4 17,4 15,0 14,1 18,0 10,5 91 2,0 2934 1,8 7,1 --- 8,3
26.08.2021 18,7 17,7 16,3 15,6 20,0 13,3 82 6,9 2952 1,7 6,8 --- 8,2
25.08.2021 18,8 17,8 15,4 15,5 23,0 8,4 79 0,0 5256 0,7 4,9 --- 10,2
24.08.2021 19,2 18,3 14,7 15,0 21,9 9,7 85 0,1 4465 1,0 7,1 --- 9,8
23.08.2021 19,5 18,8 17,3 16,9 22,1 13,7 90 9,1 3231 0,9 8,0 --- 8,4
22.08.2021 20,0 19,3 18,0 17,9 23,2 14,4 90 16,9 1947 1,3 7,3 --- 5,8
21.08.2021 19,7 19,6 19,7 20,1 29,0 11,9 75 0,0 5384 0,4 3,3 --- 10,4
20.08.2021 19,3 19,4 20,1 19,3 25,1 14,5 77 0,1 5127 0,8 7,3 --- 9,8
19.08.2021 18,9 18,1 18,5 18,1 21,4 15,2 84 0,5 2330 1,4 6,5 --- 8,0
18.08.2021 18,7 17,4 17,2 16,6 20,7 12,8 85 0,1 2644 1,8 6,6 --- 8,8
17.08.2021 19,5 17,5 13,9 13,7 17,8 9,9 82 2,8 2384 2,0 7,5 --- 7,0
16.08.2021 21,1 20,1 18,6 18,3 22,6 12,0 76 4,8 2462 2,6 10,3 --- 8,2
15.08.2021 21,3 21,5 21,3 21,5 30,4 13,4 70 0,0 5564 0,7 3,7 --- 10,4
14.08.2021 21,2 21,6 22,7 22,5 30,3 14,7 70 0,0 6445 0,9 5,3 --- 10,4
13.08.2021 20,7 21,3 23,3 22,9 30,9 15,8 77 0,0 5258 0,9 8,0 --- 10,5
12.08.2021 20,1 20,3 21,1 21,4 28,8 13,3 76 0,0 4907 0,6 3,6 --- 10,8
11.08.2021 19,5 19,9 20,5 20,4 27,7 13,7 74 0,0 5910 0,6 5,3 --- 10,7
10.08.2021 18,8 18,4 19,6 19,1 25,4 14,4 72 0,0 4527 1,1 6,4 --- 8,7
09.08.2021 18,5 17,5 17,6 17,7 23,6 11,9 72 0,0 4713 1,4 6,2 --- 11,0
08.08.2021 19,0 17,8 16,8 16,6 21,8 13,0 79 5,4 4109 2,0 11,8 --- 9,7
07.08.2021 19,3 18,4 18,0 17,9 22,6 13,1 80 0,0 2630 1,2 6,1 --- 9,7
06.08.2021 19,6 19,0 18,1 17,9 22,1 14,0 84 6,4 3266 1,7 7,3 --- 9,6
05.08.2021 19,4 19,2 19,0 18,3 24,7 12,2 81 0,0 4666 0,8 5,5 --- 10,2
04.08.2021 19,2 18,5 17,1 16,6 22,0 13,2 89 0,4 2655 0,5 3,7 --- 7,2
03.08.2021 19,5 18,1 15,3 14,9 19,1 11,7 95 13,5 2090 0,7 5,8 --- 6,5
02.08.2021 20,0 19,0 16,9 16,2 22,3 12,3 82 4,3 4085 1,2 7,6 --- 8,6
01.08.2021 20,2 19,7 19,1 17,8 24,0 13,0 72 0,0 5057 1,2 7,8 --- 10,9
31.07.2021 20,6 19,8 19,1 18,7 23,6 13,5 63 0,0 4915 2,2 10,2 --- 10,6
30.07.2021 20,5 20,2 20,7 20,3 27,3 12,5 64 0,0 6440 1,3 9,2 --- 11,1
29.07.2021 20,7 19,9 19,4 18,7 24,0 13,9 68 0,0 6046 2,0 10,0 --- 11,0
28.07.2021 21,2 20,7 19,0 18,6 24,3 14,5 85 2,3 3824 1,3 7,3 --- 10,8
27.07.2021 21,5 21,3 21,1 20,4 26,4 14,7 76 2,1 3925 0,8 5,1 --- 9,8
26.07.2021 21,6 21,7 21,5 20,7 27,6 15,4 77 0,3 5427 1,0 9,1 --- 9,4
25.07.2021 21,2 21,7 21,8 21,1 29,3 15,3 78 0,0 5839 0,6 4,3 --- 9,7
24.07.2021 21,0 20,8 20,8 20,1 28,6 13,4 78 0,2 3945 0,9 8,1 --- 9,8
23.07.2021 20,8 21,0 20,2 20,1 28,7 11,6 70 0,0 7036 0,6 4,4 --- 11,1
22.07.2021 20,5 20,6 19,2 18,9 26,8 10,9 71 0,0 6979 1,0 5,7 --- 11,2
21.07.2021 20,2 19,9 18,3 18,2 26,5 9,7 70 0,0 7485 0,8 5,1 --- 11,3
20.07.2021 20,3 19,7 17,3 17,4 23,9 10,7 73 0,0 6984 1,0 5,7 --- 11,3
19.07.2021 20,6 20,3 19,2 19,4 24,8 14,0 78 0,0 5707 1,6 6,7 --- 11,0
18.07.2021 20,4 20,4 20,0 20,5 27,9 12,3 72 0,0 7363 1,4 6,9 --- 11,4
17.07.2021 20,1 20,1 21,1 20,8 27,0 16,5 80 0,0 4291 1,7 7,0 --- 10,7
16.07.2021 19,8 19,4 18,7 18,6 25,1 12,7 87 0,9 3971 1,5 6,9 --- 10,9
15.07.2021 19,7 19,3 18,9 18,3 23,4 14,9 84 0,0 3540 0,7 4,4 --- 9,2
14.07.2021 20,0 19,0 16,9 16,5 19,8 15,0 89 1,4 1966 1,1 4,7 --- 4,5
13.07.2021 20,7 20,2 18,2 17,9 20,7 15,2 95 8,3 1366 0,9 5,0 --- 4,3
12.07.2021 20,3 20,1 20,2 20,2 28,4 11,7 78 0,1 5519 0,5 3,9 --- 11,5
11.07.2021 20,3 20,0 19,2 18,3 24,3 14,8 88 6,4 4215 0,8 4,9 --- 8,9
10.07.2021 19,8 19,5 19,5 19,5 27,7 11,7 77 7,6 5881 0,5 10,4 --- 11,7
09.07.2021 20,1 19,3 17,1 16,7 22,3 13,7 93 15,5 2878 1,4 6,8 --- 5,7
08.07.2021 20,7 20,1 18,3 17,9 23,9 14,6 89 0,7 2355 0,6 5,5 --- 7,7
07.07.2021 20,2 20,4 21,0 20,0 26,8 14,6 75 0,0 7187 0,5 3,5 --- 12,0
06.07.2021 20,0 19,3 18,4 18,4 25,1 16,1 89 4,8 1782 0,8 6,4 --- 5,0
05.07.2021 20,3 19,6 18,5 18,2 23,0 14,5 87 0,9 3147 1,2 4,8 --- 9,7
04.07.2021 21,0 20,8 19,9 19,2 27,2 14,7 85 20,8 4010 0,8 8,9 --- 9,5
03.07.2021 20,2 20,5 21,1 19,8 28,1 12,1 73 0,0 7225 0,5 5,9 --- 10,4
02.07.2021 19,5 19,2 19,3 17,4 23,3 12,7 78 0,1 6050 1,0 6,6 --- 11,5
01.07.2021 19,9 18,5 15,4 14,9 16,8 13,4 90 5,0 1469 1,5 7,5 --- 4,7
30.06.2021 21,1 20,1 16,7 16,0 19,1 13,1 90 6,1 3194 1,3 5,9 --- 8,7
29.06.2021 21,8 22,2 20,2 19,3 27,3 15,2 86 1,8 4815 0,9 10,7 --- 8,9
28.06.2021 21,3 22,0 24,1 22,7 30,7 16,6 77 12,9 5975 0,7 4,7 --- 10,0
27.06.2021 20,5 20,5 21,8 21,7 29,4 14,4 72 0,0 5989 0,4 2,8 --- 10,1
26.06.2021 20,3 20,0 19,8 19,3 26,6 12,1 75 0,0 5828 0,6 4,1 --- 11,5
25.06.2021 20,3 20,1 20,2 18,1 22,8 14,7 87 0,2 4779 1,3 6,5 --- 10,4
24.06.2021 20,7 19,8 17,7 17,5 19,7 16,0 95 11,6 1554 0,8 4,4 --- 3,8
23.06.2021 20,8 20,3 19,8 18,9 27,0 13,9 84 1,0 5254 1,2 5,5 --- 9,3
22.06.2021 21,6 20,6 17,1 16,7 20,1 13,2 88 3,0 2645 1,3 4,6 --- 8,5
21.06.2021 22,4 22,3 22,5 20,9 27,4 15,9 76 0,1 6771 1,7 7,4 --- 11,5
20.06.2021 23,1 23,4 24,9 24,5 28,6 17,6 67 5,4 4006 1,2 9,5 --- 10,6
19.06.2021 23,2 24,4 27,7 26,8 34,3 20,7 60 0,0 7393 0,7 3,7 --- 11,6
18.06.2021 22,7 23,9 26,4 26,6 35,8 16,8 61 0,0 6458 0,5 3,5 --- 11,4
17.06.2021 22,0 23,3 26,2 26,7 35,5 18,0 56 0,0 7398 0,6 4,1 --- 11,3
16.06.2021 21,3 22,4 24,0 24,3 33,7 15,2 64 0,0 7196 0,4 2,3 --- 11,9
15.06.2021 20,6 21,2 21,9 21,6 31,0 11,9 65 0,0 7302 0,6 3,9 --- 11,6
14.06.2021 20,2 20,3 19,7 19,4 28,6 9,2 62 0,0 7963 0,5 4,3 --- 11,9
13.06.2021 20,5 20,4 17,4 17,1 23,4 10,3 64 0,0 7997 1,0 6,7 --- 11,8
12.06.2021 21,1 21,7 21,2 19,7 25,5 14,3 75 0,0 5365 1,8 9,0 --- 11,1
11.06.2021 20,7 21,8 23,1 21,3 28,2 13,6 72 0,0 7568 0,7 5,0 --- 11,6
10.06.2021 20,1 21,3 21,4 20,7 27,1 14,1 77 0,0 6522 0,7 5,0 --- 11,0
09.06.2021 19,3 20,5 20,8 19,7 26,8 14,1 85 0,7 5979 0,6 5,1 --- 9,7
08.06.2021 18,4 18,8 20,0 19,1 25,1 15,3 86 0,4 3942 0,8 5,9 --- 10,3
07.06.2021 18,3 17,9 17,5 17,2 20,9 14,8 92 13,1 1751 1,9 5,3 --- 6,9
06.06.2021 19,3 19,2 17,6 17,2 20,7 15,4 91 1,3 1886 1,8 6,0 --- 5,5
05.06.2021 19,4 20,4 20,8 19,0 23,7 14,8 88 0,3 5062 1,1 7,3 --- 11,9
04.06.2021 18,7 20,5 22,2 21,2 30,2 14,7 80 14,1 6528 0,5 7,8 --- 11,1
03.06.2021 17,8 19,0 20,1 19,5 27,9 12,6 73 2,1 4573 0,5 6,0 --- 9,8
02.06.2021 16,7 17,7 19,1 19,3 28,5 8,4 56 0,0 7868 0,5 3,4 --- 11,7
01.06.2021 15,7 16,1 16,7 16,8 25,8 6,6 60 0,0 7901 0,5 4,2 --- 11,7
31.05.2021 15,2 15,3 14,7 14,9 23,3 5,8 61 0,0 8050 0,7 6,1 --- 11,7
30.05.2021 14,8 14,9 13,9 14,4 22,8 5,4 65 0,0 7007 1,1 6,9 --- 11,5
29.05.2021 14,1 14,3 13,9 13,5 21,0 4,8 68 0,0 7735 1,3 7,0 --- 11,4
28.05.2021 13,3 13,2 13,8 12,8 18,7 -2,4 77 0,0 5357 0,7 5,4 --- 11,7
27.05.2021 12,9 11,8 10,6 10,3 14,0 6,6 90 10,4 2660 1,9 8,6 --- 7,0
26.05.2021 13,2 11,9 9,9 9,9 13,8 7,1 90 9,4 1921 2,1 10,9 --- 7,0
25.05.2021 13,9 12,8 9,7 9,7 14,9 7,9 81 3,4 2736 3,0 14,1 --- 7,0
24.05.2021 13,9 13,7 13,1 12,6 21,2 5,9 72 1,4 5803 1,7 12,4 --- 9,3
23.05.2021 13,6 13,0 11,9 11,5 16,5 7,5 77 1,4 5566 2,2 13,1 --- 11,2
22.05.2021 13,8 12,9 11,8 11,5 16,2 7,7 76 8,0 4254 3,3 18,2 --- 10,4
21.05.2021 14,3 13,7 13,4 13,6 17,4 9,9 67 0,8 3250 2,6 14,1 --- 10,4
20.05.2021 14,1 14,1 14,3 12,5 17,2 8,9 76 0,0 5351 1,7 6,8 --- 10,4
19.05.2021 13,7 13,5 13,1 11,2 16,9 5,9 78 0,0 5717 1,8 9,1 --- 10,8
18.05.2021 13,5 13,1 12,6 11,5 15,6 8,5 83 3,2 4922 2,0 10,0 --- 10,4
17.05.2021 13,4 13,1 11,7 11,5 15,4 9,2 88 4,1 3980 2,2 11,3 --- 9,5
16.05.2021 13,0 12,8 12,2 11,7 17,9 7,8 85 11,1 5198 1,9 13,5 --- 9,4
15.05.2021 13,2 12,5 11,0 11,0 14,8 8,0 84 9,5 2913 1,5 14,1 --- 8,3
14.05.2021 13,4 13,3 13,5 12,5 18,7 7,7 74 1,4 4533 1,6 7,2 --- 10,5
13.05.2021 13,0 13,1 13,6 12,6 19,6 6,2 78 0,0 5438 1,3 8,2 --- 10,7
12.05.2021 13,1 12,9 12,8 12,2 15,6 9,4 91 2,5 2127 1,4 5,9 --- 6,5
11.05.2021 13,2 13,4 14,0 13,2 16,3 11,4 95 6,0 1752 1,2 6,8 --- 6,0
10.05.2021 13,2 14,0 16,3 16,6 21,0 12,3 73 1,2 2690 1,6 11,4 --- 7,2
09.05.2021 11,3 12,6 18,2 19,3 28,4 9,3 54 0,0 6526 1,5 7,5 --- 10,5
08.05.2021 9,9 9,4 9,8 10,0 17,6 -8,6 63 0,0 4967 1,2 4,9 --- 10,9
07.05.2021 9,8 9,0 8,3 7,2 10,9 2,6 77 0,6 4827 2,9 14,4 --- 10,6
06.05.2021 9,8 8,4 6,9 6,6 10,1 4,1 88 8,2 1800 1,4 7,2 --- 4,0
05.05.2021 10,2 9,0 8,1 7,6 11,0 4,5 76 4,8 4343 3,8 17,0 --- 9,1
04.05.2021 10,6 9,3 9,8 10,2 12,5 6,0 64 5,1 1242 4,2 15,9 --- 4,8
03.05.2021 10,7 9,9 8,2 7,8 14,5 -0,1 62 0,0 5332 1,6 8,4 --- 10,8
02.05.2021 11,1 10,6 10,4 9,1 12,6 2,9 56 0,1 5092 2,9 10,6 --- 10,2
01.05.2021 10,8 10,3 10,9 10,1 14,8 4,8 66 0,0 3318 1,1 7,2 --- 10,5
30.04.2021 11,1 9,7 7,2 6,8 11,2 0,6 73 0,0 2351 0,9 4,5 --- 8,7
29.04.2021 11,9 11,9 12,3 11,6 15,9 5,7 74 3,8 4119 2,7 14,3 --- 10,4
28.04.2021 11,0 11,2 12,3 12,1 22,9 1,0 56 0,3 5898 1,2 9,9 --- 8,9
27.04.2021 10,6 10,3 9,7 10,6 19,0 2,4 41 0,0 6965 0,7 8,5 --- 11,3
26.04.2021 10,3 9,8 8,5 9,0 16,7 0,7 44 0,0 7087 1,2 7,1 --- 10,2
25.04.2021 10,4 10,1 8,1 8,1 14,8 0,7 60 0,0 6941 1,7 8,6 --- 8,9
24.04.2021 10,2 9,9 8,8 8,8 16,8 -0,6 60 0,0 6627 1,6 6,9 --- 9,1
23.04.2021 10,0 9,6 7,7 7,9 16,1 -0,5 58 0,0 6847 1,1 7,2 --- 9,1
22.04.2021 10,2 10,1 8,8 8,6 14,4 3,5 58 0,0 6566 1,9 8,0 --- 9,1
21.04.2021 9,9 10,2 10,3 10,6 19,3 2,5 72 0,4 5088 1,2 9,6 --- 8,3
20.04.2021 9,1 9,3 9,7 9,2 18,2 1,0 77 0,0 6058 1,0 5,1 --- 9,1
19.04.2021 8,7 8,6 9,1 8,8 12,9 3,6 90 2,1 1783 0,7 3,7 --- 5,0
18.04.2021 8,1 7,8 8,2 7,8 12,4 3,6 78 0,3 2309 0,7 7,1 --- 7,0
17.04.2021 7,6 7,2 6,4 6,2 11,4 0,7 68 0,0 4319 1,5 8,7 --- 7,7
16.04.2021 7,3 6,1 4,5 4,4 8,0 0,1 73 0,0 2259 0,9 7,0 --- 7,6
15.04.2021 7,4 6,1 3,2 3,1 10,4 -3,3 71 0,1 4248 1,3 9,0 --- 7,3
14.04.2021 7,6 6,5 3,2 3,1 10,0 -2,9 71 0,0 4411 1,2 7,6 --- 8,6
13.04.2021 7,7 6,6 3,7 3,4 9,6 -2,9 72 0,0 5098 1,3 6,8 --- 8,6
12.04.2021 8,4 7,4 5,2 4,0 8,9 -1,1 82 0,1 3588 2,0 9,8 --- 7,7
11.04.2021 8,5 8,5 9,5 9,5 17,2 3,4 82 7,0 2241 2,2 8,5 --- 5,2
10.04.2021 7,8 7,8 10,6 10,9 12,7 8,8 74 1,2 1510 1,8 7,8 --- 4,3
09.04.2021 6,5 5,9 8,6 8,3 16,3 -1,1 54 0,0 4794 2,0 10,5 --- 8,2
08.04.2021 6,0 4,6 4,4 3,5 9,1 -0,6 62 0,0 3820 2,0 8,2 --- 8,8
07.04.2021 6,4 4,1 1,8 1,8 3,9 -0,1 76 0,1 1083 4,3 12,5 --- 2,8
06.04.2021 7,0 4,8 3,1 2,0 6,7 -1,3 70 0,0 3624 4,0 13,3 --- 6,6
05.04.2021 8,4 6,2 3,2 3,4 7,3 -1,5 77 2,2 1054 3,7 14,1 --- 2,1
04.04.2021 9,0 7,8 5,9 5,3 12,2 -1,6 67 0,0 4232 1,2 6,1 --- 8,3
03.04.2021 9,6 8,8 7,0 6,9 12,3 1,9 57 0,0 5044 2,0 9,2 --- 7,7
02.04.2021 10,4 9,5 7,9 7,7 12,5 2,0 67 0,0 3304 2,3 9,4 --- 7,5
01.04.2021 10,5 11,1 15,5 15,4 24,2 6,1 54 0,0 4655 1,8 7,8 --- 8,2
31.03.2021 9,7 10,4 14,2 14,8 26,1 4,5 52 0,0 5253 0,8 4,5 --- 8,3
30.03.2021 9,1 9,6 12,7 13,6 24,6 3,8 51 0,0 5360 1,0 5,0 --- 8,3
29.03.2021 8,3 8,6 13,1 12,8 20,8 5,9 52 0,0 5166 2,1 8,2 --- 8,3
28.03.2021 7,7 7,4 10,5 9,9 15,2 4,8 62 0,0 4212 2,4 10,4 --- 7,5
27.03.2021 8,0 7,4 8,2 7,9 11,8 4,4 70 0,7 3330 5,0 16,7 --- 7,0
26.03.2021 7,5 7,8 10,9 11,0 17,1 5,0 66 0,0 4420 1,7 5,7 --- 7,9
25.03.2021 6,8 6,7 9,0 8,6 16,1 0,2 68 0,0 3947 1,8 7,9 --- 8,1
24.03.2021 6,1 5,8 7,4 7,0 15,9 -1,0 72 0,0 4846 1,1 4,6 --- 8,2
23.03.2021 5,8 5,2 6,1 5,7 8,9 2,1 79 0,0 1726 1,1 4,8 --- 4,9
22.03.2021 5,4 4,6 5,3 5,1 7,5 3,2 77 0,0 1654 2,0 7,5 --- 4,9
21.03.2021 5,2 4,2 5,2 5,0 9,6 1,8 68 0,1 1936 2,9 11,1 --- 5,3
20.03.2021 4,9 3,7 1,6 1,3 5,7 -3,0 68 0,0 4300 0,9 4,9 --- 7,8
19.03.2021 5,2 4,1 2,3 2,4 6,5 -0,9 83 1,1 2367 1,9 10,7 --- 6,2
18.03.2021 5,2 3,8 2,3 1,8 7,4 -2,6 85 0,6 2400 0,7 6,5 --- 6,0
17.03.2021 5,6 4,5 3,0 3,2 5,8 -0,9 86 1,7 1535 1,0 6,6 --- 4,5
16.03.2021 5,7 4,6 5,2 5,0 8,1 3,3 81 0,0 1622 3,1 8,0 --- 4,8
15.03.2021 5,7 4,7 5,4 5,1 9,0 2,9 85 2,6 1970 3,6 11,8 --- 4,7
14.03.2021 5,7 4,8 5,2 4,6 7,3 2,8 85 1,8 2867 3,9 11,7 --- 6,5
13.03.2021 5,8 5,0 6,2 6,5 8,6 4,4 83 8,5 1305 5,8 17,8 --- 2,9
12.03.2021 5,9 5,1 6,7 6,8 10,5 3,8 72 3,9 1992 5,4 19,0 --- 5,6
11.03.2021 5,5 5,4 8,9 9,2 13,8 6,3 75 3,3 1207 5,2 19,0 --- 2,7
10.03.2021 4,7 4,2 6,2 6,0 9,7 2,8 79 0,0 1920 1,9 6,4 --- 5,7
09.03.2021 4,1 3,0 3,5 3,0 7,4 -1,7 82 0,3 2081 1,4 5,9 --- 5,6
08.03.2021 4,0 2,3 0,3 0,7 5,8 -4,7 81 0,0 2457 0,9 4,6 --- 6,6
07.03.2021 4,3 2,6 0,7 1,0 9,4 -5,9 65 0,0 4007 0,8 4,1 --- 7,5
06.03.2021 5,0 2,9 -0,2 0,4 8,1 -6,1 69 0,0 3971 0,8 5,3 --- 7,4
05.03.2021 6,2 5,1 2,7 3,0 5,8 -2,7 83 2,1 1289 2,1 7,8 --- 4,0
04.03.2021 6,0 5,9 8,9 8,8 13,9 5,3 77 0,6 2331 2,0 9,5 --- 4,8
03.03.2021 5,4 4,6 5,7 6,3 15,0 -0,3 80 0,0 2310 0,7 3,1 --- 5,6
02.03.2021 5,1 4,3 5,8 6,6 15,7 -0,6 75 0,0 3417 0,8 3,8 --- 7,1
01.03.2021 5,1 3,9 3,4 4,5 14,5 -2,8 76 0,0 3414 0,8 5,0 --- 7,1
28.02.2021 5,5 4,2 3,6 4,4 11,7 -1,3 74 0,0 3384 1,0 5,0 --- 7,1
27.02.2021 5,9 4,8 3,3 3,6 8,5 -0,6 88 0,1 3243 1,5 7,0 --- 6,5
26.02.2021 6,8 5,8 4,8 5,5 10,4 1,0 88 0,0 723 1,4 8,2 --- 1,4
25.02.2021 6,9 7,1 11,1 11,6 18,8 4,3 67 0,0 3019 1,3 6,2 --- 6,8
24.02.2021 6,3 6,8 11,7 12,5 19,7 6,6 74 0,0 2646 1,4 5,4 --- 6,5
23.02.2021 5,4 5,2 8,7 9,4 19,9 1,5 81 0,0 2527 1,2 6,0 --- 6,4
22.02.2021 5,4 4,8 5,8 6,4 10,3 2,4 84 0,0 2431 1,4 4,2 --- 6,1
21.02.2021 5,3 5,2 8,2 9,4 18,3 0,7 74 0,0 2843 1,2 4,1 --- 6,4
20.02.2021 4,6 4,9 9,4 10,0 17,4 4,0 77 0,0 2492 1,4 5,8 --- 6,0
19.02.2021 3,9 3,9 6,5 7,1 12,3 1,5 83 0,4 2225 1,7 8,6 --- 5,4
18.02.2021 2,7 2,4 6,4 7,0 12,1 1,6 80 0,2 1580 1,5 10,4 --- 4,8
17.02.2021 1,4 0,3 7,0 7,6 10,4 3,1 85 1,8 1291 2,9 9,5 --- 4,3
16.02.2021 1,2 -0,7 4,5 5,1 10,3 2,2 87 0,0 1379 1,2 4,0 --- 5,0
15.02.2021 1,3 -0,7 -1,2 -0,7 2,8 -4,9 69 1,3 856 1,3 5,1 --- 2,1
14.02.2021 1,4 -0,7 -5,8 -4,9 1,1 -11,1 74 0,0 2659 1,5 6,0 --- 5,9
13.02.2021 1,7 -0,5 -6,6 -5,9 -0,9 -11,2 73 0,0 2527 1,3 5,5 --- 5,7
12.02.2021 2,0 -0,3 -6,7 -6,2 -1,9 -11,2 78 0,0 2492 1,3 5,6 --- 5,5
11.02.2021 2,3 -0,1 -6,5 -6,6 -1,1 -12,0 86 1,2 2011 0,7 3,2 --- 5,1
10.02.2021 3,0 0,5 -8,6 -8,6 -4,9 -11,5 82 0,0 1180 2,0 6,4 --- 4,5
09.02.2021 3,7 1,4 -7,4 -7,6 -6,1 -10,2 85 0,0 695 1,8 4,4 --- 1,3
08.02.2021 4,5 2,3 -3,9 -4,2 -2,3 -6,5 97 0,0 610 1,7 4,6 --- 0,5
07.02.2021 5,5 4,1 2,5 2,4 4,3 -2,3 97 3,1 279 1,9 7,8 --- ---
06.02.2021 5,8 5,0 5,1 5,2 6,1 4,2 97 8,2 216 1,0 4,9 --- ---
05.02.2021 5,8 4,9 5,5 5,7 7,6 3,6 96 3,0 501 0,6 2,5 --- ---
04.02.2021 6,3 5,8 6,9 7,3 9,7 3,7 83 0,8 1697 3,0 15,7 --- 4,6
03.02.2021 5,7 6,2 9,7 10,3 11,8 9,1 91 13,0 308 3,7 15,6 --- 0,1
02.02.2021 4,4 4,1 7,0 7,3 10,8 4,3 95 3,0 626 2,1 8,7 --- 1,1
01.02.2021 3,8 2,7 3,0 3,0 4,9 1,2 98 2,4 549 1,4 5,9 --- 0,5
31.01.2021 4,2 2,6 0,6 0,6 1,4 -0,4 93 2,1 428 0,9 3,7 --- ---
30.01.2021 5,0 4,3 3,8 4,1 7,8 0,0 94 4,9 381 2,8 11,3 --- 0,4
29.01.2021 4,5 4,9 8,5 9,0 10,5 6,9 87 4,2 508 4,6 15,1 --- 0,8
28.01.2021 2,8 2,4 5,6 5,9 10,9 1,6 97 14,5 164 3,1 12,4 --- ---
27.01.2021 2,5 0,9 0,6 0,8 1,8 -0,4 94 0,3 442 2,2 6,8 --- 0,5
26.01.2021 2,8 1,1 0,9 1,3 3,1 -0,8 88 0,5 221 3,5 10,2 --- ---
25.01.2021 3,0 1,4 0,4 0,3 2,1 -0,8 94 0,4 531 0,9 3,5 --- 1,1
24.01.2021 3,5 2,0 1,1 1,4 3,2 -0,4 91 4,9 364 4,3 13,2 --- 0,4
23.01.2021 4,0 2,8 2,7 3,0 4,9 1,0 94 0,0 440 1,4 6,6 --- 0,3
22.01.2021 4,1 4,1 5,5 5,9 10,5 2,0 89 9,0 304 3,1 11,8 --- ---
21.01.2021 3,0 2,9 7,5 8,1 11,1 4,9 75 2,1 319 3,7 14,3 --- 0,2
20.01.2021 2,1 1,2 4,6 5,6 9,3 2,7 68 0,0 738 2,0 5,8 --- 2,5
19.01.2021 1,8 0,7 2,0 2,5 3,5 1,2 87 2,3 295 3,8 12,3 --- ---
18.01.2021 1,5 0,1 2,2 2,5 4,2 1,5 91 0,0 650 2,8 8,6 --- 1,8
17.01.2021 1,5 -0,3 -0,8 -1,0 1,6 -2,7 97 2,0 354 0,7 3,6 --- ---
16.01.2021 1,5 -0,3 -1,3 -1,4 -0,5 -2,6 85 0,0 294 1,1 5,0 --- ---
15.01.2021 1,7 -0,3 -2,4 -1,7 0,2 -4,5 91 0,0 722 0,7 4,3 --- 3,0
14.01.2021 1,8 0,1 0,1 0,7 2,5 -1,7 83 0,0 626 1,3 9,0 --- 1,2
13.01.2021 1,7 -0,2 0,4 1,0 3,1 -1,1 89 0,0 762 2,8 8,7 --- 2,4
12.01.2021 1,9 -0,2 0,6 1,1 2,7 -0,1 94 1,2 271 3,8 10,3 --- ---
11.01.2021 2,2 -0,2 -2,8 -2,3 1,7 -6,1 88 0,1 986 1,3 6,5 --- 3,5
10.01.2021 2,7 0,3 -3,1 -2,3 2,2 -4,8 94 0,0 932 0,4 2,1 --- 2,4
09.01.2021 3,3 1,5 -0,3 0,1 2,2 -2,9 93 0,0 662 0,8 5,5 --- 1,6
08.01.2021 3,4 1,6 0,7 0,8 1,6 0,1 98 0,5 462 2,6 7,3 --- 0,8
07.01.2021 3,7 2,0 1,1 1,2 2,1 0,4 93 0,2 347 1,7 5,8 --- ---
06.01.2021 3,7 2,2 1,4 1,5 2,7 0,4 98 0,0 247 1,2 4,6 --- ---
05.01.2021 3,7 2,1 1,3 1,3 2,7 0,6 97 0,3 243 1,1 4,0 --- ---
04.01.2021 3,8 2,1 0,9 0,9 2,0 0,1 99 0,4 163 0,7 2,9 --- ---
03.01.2021 4,0 2,2 0,6 0,6 1,9 -0,1 96 1,1 253 0,9 4,7 --- ---
02.01.2021 4,2 2,6 1,4 1,5 3,1 0,3 91 0,0 466 0,8 4,9 --- ---
01.01.2021 4,3 2,7 2,0 2,2 3,4 0,9 97 0,1 287 0,7 2,9 --- ---

Mittelwerte (Temperaturen, Strahlung, rel. Feuchte, Wind), Summe (Regen) für 2021
12,6 11,9 11,4 11,4 80 547 3.363 1,5

Landesbetrieb Landwirtschaft Hessen 2009

      Werte bis 5 Uhr SommerzeitCSV-Datei: Gross Umstadt21.csvDiagramm: Gross Umstadt